Terminal Aerodrome Forecast
Issued by NWS

Home | Current Version | Previous Version | Text Only | Print | Product List | Glossary On
Versions: 1 2 3 4 5 6 7 8 9 10 11 12 13 14 15 16 17 18 19
000
FTUS41 KOKX 221400 AAA
TAFHPN
TAF AMD
KHPN 221430Z 2215/2312 27005KT P6SM FEW050 SCT250
     FM221800 21008KT P6SM FEW050 SCT100
     FM222000 18010KT P6SM FEW050
     FM230100 VRB03KT P6SM FEW050
      TEMPO 2308/2312 5SM BR
      AMD NOT SKED=

USA.gov is the U.S. government's official web portal to all federal, state and local government web resources and services.